Time;durP1;ratioP1;P1;durP2;ratioP2;P2;SDS_P1;SDS_P2;PMS_P1;PMS_P2;Temp;Humidity;BMP_temperature;BMP_pressure;BME280_temperature;BME280_humidity;BME280_pressure;Samples;Min_cycle;Max_cycle;Signal;HPM_P1;HPM_P2
2022/11/02 00:00:21;;;;;;;10.57;2.30;;;;;;;11.43;81.71;99313.03;6142959;23;20205;-64
2022/11/02 00:02:48;;;;;;;7.13;1.10;;;;;;;11.39;81.85;99316.09;6145806;23;20206;-64
2022/11/02 00:05:22;;;;;;;5.90;1.40;;;;;;;11.34;81.69;99316.47;6141954;23;20205;-64
2022/11/02 00:07:49;;;;;;;6.37;1.23;;;;;;;11.39;80.60;99310.84;6146538;23;20212;-64
2022/11/02 00:10:16;;;;;;;7.87;2.10;;;;;;;11.28;80.26;99309.19;6142961;23;20202;-64
2022/11/02 00:12:42;;;;;;;6.50;1.30;;;;;;;11.26;81.95;99313.72;6145373;23;20214;-64
2022/11/02 00:15:10;;;;;;;6.50;1.40;;;;;;;11.29;79.27;99303.84;6142319;23;20209;-64
2022/11/02 00:17:37;;;;;;;5.90;1.53;;;;;;;11.40;78.02;99296.81;6146440;23;20260;-64
2022/11/02 00:20:05;;;;;;;11.73;1.40;;;;;;;11.47;78.60;99297.91;6145739;23;20205;-64
2022/11/02 00:22:34;;;;;;;8.37;1.10;;;;;;;11.75;75.62;99318.91;6144040;23;20208;-64
2022/11/02 00:25:03;;;;;;;6.73;1.30;;;;;;;11.71;75.52;99309.69;6146400;23;20664;-64
2022/11/02 00:27:31;;;;;;;7.20;1.30;;;;;;;11.62;76.10;99301.75;6142640;23;20246;-64
2022/11/02 00:29:58;;;;;;;7.97;1.27;;;;;;;11.54;77.63;99300.78;6120353;23;20209;-65
2022/11/02 00:32:25;;;;;;;9.33;1.50;;;;;;;11.50;77.64;99311.53;6116750;23;20210;-64
2022/11/02 00:34:51;;;;;;;9.57;1.63;;;;;;;11.57;77.19;99295.28;6146210;23;20202;-64
2022/11/02 00:37:18;;;;;;;8.67;1.43;;;;;;;11.52;76.27;99298.31;6140665;23;20202;-64
2022/11/02 00:39:46;;;;;;;6.40;1.30;;;;;;;11.56;76.91;99302.31;6146245;23;20281;-64
2022/11/02 00:42:13;;;;;;;11.70;1.40;;;;;;;11.48;78.57;99310.84;6142580;23;20301;-64
2022/11/02 00:44:39;;;;;;;8.73;1.07;;;;;;;11.43;77.48;99309.63;6144764;23;20207;-64
2022/11/02 00:47:06;;;;;;;10.27;2.27;;;;;;;11.53;77.05;99310.44;6143536;23;20202;-64
2022/11/02 00:49:32;;;;;;;5.40;1.17;;;;;;;11.66;75.58;99313.53;6141989;23;20205;-64
2022/11/02 00:51:59;;;;;;;12.00;1.03;;;;;;;11.57;76.87;99313.56;6144601;23;20213;-64
2022/11/02 00:54:28;;;;;;;5.87;1.30;;;;;;;11.56;76.84;99318.00;6116499;23;20225;-64
2022/11/02 00:56:56;;;;;;;9.80;1.40;;;;;;;11.72;75.93;99308.72;6144287;23;20202;-64
2022/11/02 00:59:23;;;;;;;11.30;2.03;;;;;;;11.76;76.16;99312.69;6116679;23;20218;-64
2022/11/02 01:01:50;;;;;;;6.57;1.23;;;;;;;11.93;73.82;99304.13;6144749;23;20201;-64
2022/11/02 01:04:17;;;;;;;7.90;1.30;;;;;;;11.93;75.67;99301.50;6142802;23;20206;-64
2022/11/02 01:06:45;;;;;;;11.90;1.47;;;;;;;11.84;75.68;99304.97;6144248;23;20275;-64
2022/11/02 01:09:14;;;;;;;9.33;1.93;;;;;;;11.76;75.62;99297.84;6140540;23;20215;-64
2022/11/02 01:11:41;;;;;;;11.80;1.70;;;;;;;11.70;76.52;99297.56;6145902;23;20206;-65
2022/11/02 01:14:09;;;;;;;7.07;1.57;;;;;;;11.62;76.47;99291.28;6116100;23;20207;-64
2022/11/02 01:16:38;;;;;;;11.33;1.53;;;;;;;11.69;76.66;99285.47;6145518;23;20206;-64
2022/11/02 01:19:05;;;;;;;12.00;1.77;;;;;;;11.73;76.01;99282.44;6144370;23;20647;-64
2022/11/02 01:21:32;;;;;;;6.77;1.47;;;;;;;11.84;74.23;99284.03;6142060;23;20220;-64
2022/11/02 01:23:58;;;;;;;11.70;1.80;;;;;;;11.85;75.20;99282.28;6145868;23;20229;-64
2022/11/02 01:26:25;;;;;;;7.87;1.77;;;;;;;11.88;74.79;99287.22;6140386;23;20647;-64
2022/11/02 01:28:53;;;;;;;13.47;1.90;;;;;;;11.83;74.62;99279.78;6144345;23;20519;-64
2022/11/02 01:31:21;;;;;;;13.43;2.07;;;;;;;11.80;74.99;99274.84;6140477;23;20265;-64
2022/11/02 01:33:48;;;;;;;8.83;1.37;;;;;;;11.86;74.43;99271.66;6144268;23;20606;-64
2022/11/02 01:36:16;;;;;;;10.20;1.37;;;;;;;12.03;72.64;99274.50;6141794;23;20214;-64
2022/11/02 01:38:42;;;;;;;9.60;1.70;;;;;;;12.06;72.91;99276.84;6143838;23;20206;-64
2022/11/02 01:41:11;;;;;;;9.83;1.33;;;;;;;12.02;72.72;99272.88;6140372;23;20569;-64
2022/11/02 01:43:37;;;;;;;7.03;1.57;;;;;;;12.02;73.07;99281.56;6143940;23;20201;-64
2022/11/02 01:46:07;;;;;;;8.87;1.60;;;;;;;11.91;74.32;99279.91;6118516;23;20198;-64
2022/11/02 01:48:46;;;;;;;14.47;1.87;;;;;;;11.86;74.12;99276.06;6117198;23;20279;-64
2022/11/02 01:51:17;;;;;;;10.03;1.70;;;;;;;11.86;72.57;99271.66;6141831;23;20213;-64
2022/11/02 01:53:46;;;;;;;12.70;1.90;;;;;;;11.91;72.89;99263.38;6119526;23;20864;-64
2022/11/02 01:56:17;;;;;;;10.67;1.80;;;;;;;11.96;72.67;99256.75;6140374;23;20226;-64
2022/11/02 01:58:49;;;;;;;15.97;2.17;;;;;;;11.96;71.98;99258.56;6144037;23;20211;-64
2022/11/02 02:01:15;;;;;;;14.47;1.83;;;;;;;11.93;72.63;99249.19;6116088;23;20202;-64
2022/11/02 02:03:44;;;;;;;11.00;1.50;;;;;;;11.87;73.63;99246.34;6119434;23;20214;-64
2022/11/02 02:06:14;;;;;;;9.90;1.60;;;;;;;11.78;73.89;99243.59;6139937;23;20197;-64
2022/11/02 02:08:45;;;;;;;6.77;1.10;;;;;;;11.75;74.13;99248.28;6143913;23;20241;-64
2022/11/02 02:11:35;;;;;;;11.57;2.13;;;;;;;12.00;71.85;99228.53;6115764;23;20199;-64
2022/11/02 02:14:05;;;;;;;10.90;1.80;;;;;;;11.88;73.61;99232.28;6136903;23;20269;-64
2022/11/02 02:16:52;;;;;;;8.47;2.17;;;;;;;11.80;74.23;99240.84;6142068;23;20217;-64
2022/11/02 02:19:32;;;;;;;5.83;1.20;;;;;;;11.86;73.43;99244.69;6115871;23;20222;-64
2022/11/02 02:22:14;;;;;;;11.33;2.03;;;;;;;11.90;73.16;99249.47;6119157;23;20681;-64
2022/11/02 02:24:49;;;;;;;8.10;2.20;;;;;;;11.96;72.55;99243.66;6142531;23;20531;-64
2022/11/02 02:27:21;;;;;;;7.33;1.30;;;;;;;11.90;72.81;99241.63;6114808;23;20434;-64
2022/11/02 02:30:08;;;;;;;10.73;1.40;;;;;;;11.95;72.68;99236.78;6119206;23;20210;-64
2022/11/02 02:32:41;;;;;;;8.57;1.73;;;;;;;12.01;72.41;99234.59;6139438;23;20578;-64
2022/11/02 02:35:22;;;;;;;8.47;1.27;;;;;;;11.96;72.54;99233.19;6115631;23;20217;-64
2022/11/02 02:37:55;;;;;;;9.47;1.60;;;;;;;11.96;72.17;99240.22;6145539;23;20261;-64
2022/11/02 02:40:29;;;;;;;8.10;1.47;;;;;;;11.93;72.59;99241.34;6115893;23;20205;-64
2022/11/02 02:43:03;;;;;;;9.63;1.37;;;;;;;12.03;71.35;99243.13;6143611;23;20755;-64
2022/11/02 02:45:34;;;;;;;6.40;1.53;;;;;;;12.12;71.15;99242.25;6114962;23;20213;-64
2022/11/02 02:48:07;;;;;;;11.43;1.57;;;;;;;12.34;68.95;99248.88;6143460;23;20217;-64
2022/11/02 02:50:40;;;;;;;8.47;1.63;;;;;;;12.21;70.62;99243.16;6140867;23;20789;-64
2022/11/02 02:53:08;;;;;;;7.77;1.53;;;;;;;12.21;69.97;99245.75;6116601;23;20671;-64
2022/11/02 02:55:41;;;;;;;4.00;1.23;;;;;;;12.15;70.69;99247.19;6118038;23;20729;-64
2022/11/02 02:58:13;;;;;;;8.67;1.40;;;;;;;12.24;70.83;99238.47;6139650;23;20746;-64
2022/11/02 03:00:41;;;;;;;8.53;1.50;;;;;;;12.30;69.53;99238.84;6119068;23;20261;-64
2022/11/02 03:03:09;;;;;;;9.03;1.67;;;;;;;12.40;68.45;99240.44;6139861;23;20202;-64
2022/11/02 03:05:38;;;;;;;8.23;1.70;;;;;;;12.36;69.74;99243.50;6143594;23;20250;-64
2022/11/02 03:08:12;;;;;;;8.27;1.43;;;;;;;12.31;70.79;99245.72;6115334;23;20229;-64
2022/11/02 03:10:47;;;;;;;9.60;1.50;;;;;;;12.34;69.66;99246.25;6143711;23;20230;-64
2022/11/02 03:13:34;;;;;;;6.53;1.33;;;;;;;12.39;68.83;99243.22;6115295;23;20204;-64
2022/11/02 03:16:10;;;;;;;7.23;1.40;;;;;;;12.50;69.01;99245.63;6119141;23;20511;-64
2022/11/02 03:18:48;;;;;;;5.77;1.40;;;;;;;12.49;69.79;99254.44;6142063;23;20708;-64
2022/11/02 03:21:25;;;;;;;5.33;1.37;;;;;;;12.44;69.92;99258.47;6141894;23;20285;-64
2022/11/02 03:23:57;;;;;;;11.13;2.07;;;;;;;12.44;70.27;99251.44;6145257;23;20199;-64
2022/11/02 03:26:31;;;;;;;7.77;1.23;;;;;;;12.30;71.20;99249.31;6139358;23;20215;-64
2022/11/02 03:29:03;;;;;;;4.57;1.50;;;;;;;12.18;71.60;99251.31;6143015;23;20206;-64
2022/11/02 03:31:37;;;;;;;8.47;1.50;;;;;;;12.16;72.65;99256.69;6116174;23;20294;-64
2022/11/02 03:34:16;;;;;;;9.27;1.27;;;;;;;12.09;73.33;99261.69;6142961;23;20650;-64
2022/11/02 03:36:46;;;;;;;3.27;1.00;;;;;;;12.09;73.71;99253.84;6116442;23;20854;-64
2022/11/02 03:39:17;;;;;;;4.77;1.47;;;;;;;11.96;74.26;99254.13;6114850;23;20292;-64
2022/11/02 03:41:47;;;;;;;10.73;2.17;;;;;;;12.01;73.94;99263.38;6143925;23;20218;-64
2022/11/02 03:44:20;;;;;;;7.97;1.47;;;;;;;11.88;75.64;99254.03;6141043;23;20207;-64
2022/11/02 03:46:52;;;;;;;6.57;1.10;;;;;;;11.76;75.41;99252.53;6120226;23;20209;-64
2022/11/02 03:49:21;;;;;;;6.97;1.27;;;;;;;11.77;75.62;99262.88;6116396;23;20207;-64
2022/11/02 03:51:50;;;;;;;7.77;1.77;;;;;;;11.86;75.33;99257.75;6120237;23;20202;-64
2022/11/02 03:54:22;;;;;;;9.40;1.67;;;;;;;11.78;75.93;99256.69;6141628;23;20659;-64
2022/11/02 03:56:53;;;;;;;4.70;1.00;;;;;;;11.79;76.47;99260.94;6120389;23;20202;-64
2022/11/02 03:59:19;;;;;;;9.17;1.70;;;;;;;11.86;75.56;99260.38;6141763;23;20215;-64
2022/11/02 04:01:51;;;;;;;5.23;2.03;;;;;;;12.10;73.14;99265.97;6145139;23;20217;-64
2022/11/02 04:04:20;;;;;;;6.00;1.10;;;;;;;11.93;74.38;99264.06;6141160;23;20203;-64
2022/11/02 04:06:48;;;;;;;10.10;1.40;;;;;;;12.17;73.36;99279.28;6144723;23;20207;-64
2022/11/02 04:09:16;;;;;;;6.70;1.93;;;;;;;12.21;73.41;99270.16;6116919;23;20254;-64
2022/11/02 04:14:37;;;;;;;9.30;1.33;;;;;;;12.18;73.11;99277.50;6116986;23;20592;-64
2022/11/02 04:20:12;;;;;;;8.40;1.43;;;;;;;12.21;73.57;99292.88;6052583;23;20404;-64
2022/11/02 04:25:23;;;;;;;9.13;1.50;;;;;;;12.45;72.15;99292.38;6091835;23;20683;-64
2022/11/02 04:28:14;;;;;;;8.83;1.43;;;;;;;12.56;72.89;99299.19;6142597;23;20281;-64
2022/11/02 04:30:46;;;;;;;8.83;2.60;;;;;;;12.51;72.68;99299.63;6120938;23;20206;-64
2022/11/02 04:33:32;;;;;;;5.70;1.33;;;;;;;12.51;72.68;99302.25;6167647;23;20206;-58
2022/11/02 04:36:10;;;;;;;9.13;1.67;;;;;;;12.60;72.17;99300.53;6144989;23;20209;-59
2022/11/02 04:38:41;;;;;;;7.53;1.27;;;;;;;12.62;72.96;99316.94;6149141;23;20276;-58
2022/11/02 04:44:00;;;;;;;6.10;1.70;;;;;;;12.63;73.11;99323.00;6173324;23;20699;-58
2022/11/02 04:46:28;;;;;;;4.90;1.70;;;;;;;12.72;72.64;99327.34;6144826;23;21862;-58
2022/11/02 04:48:57;;;;;;;7.90;1.73;;;;;;;12.76;72.38;99315.59;6174160;23;20200;-58
2022/11/02 04:51:26;;;;;;;9.37;1.67;;;;;;;12.72;72.37;99324.72;6145041;23;20214;-58
2022/11/02 04:53:54;;;;;;;7.67;1.60;;;;;;;12.70;73.33;99329.31;6175556;23;20277;-59
2022/11/02 04:56:23;;;;;;;11.57;1.90;;;;;;;12.68;73.02;99318.97;6145725;23;20289;-59
2022/11/02 04:58:50;;;;;;;7.57;1.50;;;;;;;12.70;72.90;99324.88;6175671;23;20214;-56
2022/11/02 05:01:18;;;;;;;8.40;1.53;;;;;;;12.73;72.64;99323.75;6145626;23;20203;-58
2022/11/02 05:03:47;;;;;;;8.37;1.40;;;;;;;12.71;72.76;99330.94;6149497;23;20653;-58
2022/11/02 05:06:16;;;;;;;7.67;1.20;;;;;;;12.77;72.65;99325.09;6144901;23;20562;-59
2022/11/02 05:08:43;;;;;;;4.60;1.37;;;;;;;12.76;72.14;99340.97;6149306;23;20564;-60
2022/11/02 05:11:10;;;;;;;8.00;1.70;;;;;;;12.77;73.03;99337.38;6145325;23;20233;-59
2022/11/02 05:13:38;;;;;;;8.40;1.60;;;;;;;12.77;72.48;99330.34;6149568;23;20649;-58
2022/11/02 05:16:06;;;;;;;6.27;1.30;;;;;;;12.78;74.16;99337.22;6148413;23;20198;-58
2022/11/02 05:18:33;;;;;;;11.53;1.53;;;;;;;12.79;72.37;99331.00;6147019;23;20206;-59
2022/11/02 05:21:02;;;;;;;7.47;1.57;;;;;;;12.80;72.50;99332.66;6173676;23;20669;-59
2022/11/02 05:23:31;;;;;;;7.80;1.63;;;;;;;12.79;72.87;99341.50;6170362;23;20218;-59
2022/11/02 05:26:01;;;;;;;8.37;1.10;;;;;;;12.74;73.42;99348.97;6148907;23;20207;-58
2022/11/02 05:28:31;;;;;;;5.77;1.30;;;;;;;12.72;73.69;99358.75;6145797;23;20561;-58
2022/11/02 05:30:59;;;;;;;4.93;1.37;;;;;;;12.81;76.11;99367.56;6149106;23;20203;-59
2022/11/02 05:33:28;;;;;;;6.47;1.33;;;;;;;12.72;77.19;99357.97;6145201;23;21430;-59
2022/11/02 05:35:55;;;;;;;63.53;39.53;;;;;;;12.59;78.45;99358.31;6174681;23;20203;-59
2022/11/02 05:38:22;;;;;;;43.03;24.60;;;;;;;12.52;79.46;99361.50;6144728;23;20589;-59
2022/11/02 05:40:53;;;;;;;16.37;7.17;;;;;;;12.51;79.51;99367.72;6175020;23;20233;-59
2022/11/02 05:43:20;;;;;;;10.73;2.10;;;;;;;12.52;78.08;99358.06;6145233;23;20210;-59
2022/11/02 05:45:53;;;;;;;8.70;1.47;;;;;;;12.44;79.14;99371.88;6173374;23;20203;-59
2022/11/02 05:48:20;;;;;;;11.97;2.23;;;;;;;12.40;81.93;99373.13;6170812;23;20281;-58
2022/11/02 05:50:47;;;;;;;6.73;1.40;;;;;;;12.46;79.77;99374.34;6175103;23;20583;-59
2022/11/02 05:53:14;;;;;;;7.30;1.60;;;;;;;12.39;80.75;99374.09;6171183;23;20296;-59
2022/11/02 05:55:40;;;;;;;11.33;2.10;;;;;;;12.38;82.46;99381.13;6175245;23;20210;-57
2022/11/02 05:58:08;;;;;;;7.67;1.87;;;;;;;12.31;82.71;99381.84;6171057;23;20700;-59
2022/11/02 06:00:35;;;;;;;7.83;1.30;;;;;;;12.26;82.56;99377.03;6175348;23;20217;-60
2022/11/02 06:03:02;;;;;;;6.67;1.50;;;;;;;12.22;83.31;99381.75;6174902;23;20263;-59
2022/11/02 06:05:28;;;;;;;6.93;2.00;;;;;;;12.22;84.25;99389.59;6171241;23;20209;-58
2022/11/02 06:07:58;;;;;;;5.97;1.83;;;;;;;12.21;82.87;99387.94;6174697;23;20240;-59
2022/11/02 06:10:24;;;;;;;13.37;4.63;;;;;;;12.18;83.78;99388.22;6171500;23;20265;-59
2022/11/02 06:12:54;;;;;;;5.20;2.37;;;;;;;12.21;83.00;99394.94;6174949;23;20268;-58
2022/11/02 06:15:22;;;;;;;8.80;2.10;;;;;;;12.20;82.87;99393.31;6170830;23;20206;-58
2022/11/02 06:17:50;;;;;;;6.40;1.30;;;;;;;12.21;82.25;99397.56;6174631;23;20357;-59
2022/11/02 06:20:17;;;;;;;10.87;2.63;;;;;;;12.20;83.03;99407.22;6170624;23;20636;-57
2022/11/02 06:22:43;;;;;;;5.93;2.90;;;;;;;12.19;82.72;99410.81;6175039;23;20206;-59
2022/11/02 06:25:10;;;;;;;6.97;2.53;;;;;;;12.21;82.95;99410.66;6170120;23;20268;-59
2022/11/02 06:27:37;;;;;;;6.67;1.90;;;;;;;12.27;83.36;99417.13;6174792;23;20236;-55
2022/11/02 06:30:09;;;;;;;6.00;1.60;;;;;;;12.23;83.20;99438.34;6172455;23;20228;-57
2022/11/02 06:32:37;;;;;;;35.90;17.40;;;;;;;12.24;83.83;99436.56;6172133;23;20217;-57
2022/11/02 06:35:03;;;;;;;7.80;1.73;;;;;;;12.24;84.08;99450.47;6174495;23;20549;-58
2022/11/02 06:37:33;;;;;;;9.97;1.27;;;;;;;12.27;83.52;99451.16;6157880;23;20202;-55
2022/11/02 06:40:00;;;;;;;4.60;1.00;;;;;;;12.34;82.66;99454.88;6174464;23;20304;-55
2022/11/02 06:42:29;;;;;;;10.87;4.47;;;;;;;12.29;83.58;99449.22;6170409;23;21392;-56
2022/11/02 06:45:01;;;;;;;6.17;2.23;;;;;;;12.28;84.75;99471.94;6174802;23;20205;-58
2022/11/02 06:47:30;;;;;;;6.90;1.27;;;;;;;12.36;83.73;99477.31;6170970;23;20209;-58
2022/11/02 06:49:58;;;;;;;4.63;2.30;;;;;;;12.35;83.67;99467.00;6174931;23;20206;-56
2022/11/02 06:52:24;;;;;;;9.33;1.23;;;;;;;12.31;84.23;99476.09;6170972;23;20226;-59
2022/11/02 06:54:51;;;;;;;4.97;1.07;;;;;;;12.36;83.56;99479.13;6174050;23;20213;-59
2022/11/02 06:57:17;;;;;;;4.70;1.90;;;;;;;12.35;84.00;99490.56;6169903;23;20210;-59
2022/11/02 06:59:44;;;;;;;10.20;1.37;;;;;;;12.37;82.82;99489.44;6174321;23;20276;-58
2022/11/02 07:02:11;;;;;;;6.50;1.10;;;;;;;12.36;83.94;99481.72;6170873;23;20207;-59
2022/11/02 07:04:37;;;;;;;6.17;1.03;;;;;;;12.43;82.79;99490.69;6174820;23;20259;-58
2022/11/02 07:07:05;;;;;;;9.37;1.53;;;;;;;12.35;84.03;99503.66;6174899;23;20235;-57
2022/11/02 07:09:32;;;;;;;5.17;1.20;;;;;;;12.35;84.36;99507.06;6170977;23;20638;-56
2022/11/02 07:11:58;;;;;;;6.73;1.67;;;;;;;12.44;84.87;99512.44;6174758;23;20207;-56
2022/11/02 07:14:25;;;;;;;6.00;1.00;;;;;;;12.52;82.52;99502.94;6170748;23;20218;-58
2022/11/02 07:16:51;;;;;;;5.40;1.40;;;;;;;12.47;84.55;99504.31;6174542;23;20206;-56
2022/11/02 07:19:18;;;;;;;6.10;1.50;;;;;;;12.59;83.63;99508.41;6172573;23;20205;-60
2022/11/02 07:21:44;;;;;;;5.43;1.10;;;;;;;12.66;82.53;99506.06;6176466;23;20255;-59
2022/11/02 07:24:12;;;;;;;6.70;1.30;;;;;;;12.66;84.38;99511.31;6171353;23;20640;-55
2022/11/02 07:26:39;;;;;;;6.13;1.10;;;;;;;12.66;83.68;99512.09;6176258;23;20200;-58
2022/11/02 07:29:05;;;;;;;4.50;2.00;;;;;;;12.65;83.40;99517.50;6175323;23;20641;-57
2022/11/02 07:31:32;;;;;;;6.47;1.13;;;;;;;12.57;83.59;99525.25;6173286;23;20211;-55
2022/11/02 07:33:58;;;;;;;6.40;1.40;;;;;;;12.59;83.73;99526.75;6175999;23;20216;-55
2022/11/02 07:36:25;;;;;;;2.87;1.00;;;;;;;12.67;83.19;99521.63;6172160;23;20265;-56
2022/11/02 07:38:52;;;;;;;6.53;1.70;;;;;;;12.74;84.07;99531.53;6176212;23;20200;-57
2022/11/02 07:41:19;;;;;;;6.87;1.80;;;;;;;12.82;84.00;99529.03;6172095;23;20545;-58
2022/11/02 07:43:46;;;;;;;9.33;1.80;;;;;;;12.88;82.73;99525.84;6175652;23;20198;-61
2022/11/02 07:46:19;;;;;;;7.63;1.70;;;;;;;12.96;81.60;99536.44;6171803;23;20203;-59
2022/11/02 07:48:47;;;;;;;5.47;1.37;;;;;;;13.07;81.38;99552.94;6176355;23;20224;-58
2022/11/02 07:51:13;;;;;;;7.13;1.47;;;;;;;13.00;81.25;99539.56;6172253;23;20208;-58
2022/11/02 07:53:40;;;;;;;7.50;1.47;;;;;;;13.13;80.42;99542.69;6174974;23;20240;-57
2022/11/02 07:56:07;;;;;;;8.30;1.60;;;;;;;13.09;80.34;99551.81;6175233;23;20205;-58
2022/11/02 07:58:35;;;;;;;6.17;1.30;;;;;;;13.05;82.15;99554.88;6173367;23;20553;-59
2022/11/02 08:01:02;;;;;;;10.03;1.83;;;;;;;13.05;80.48;99550.44;6175683;23;20201;-59
2022/11/02 08:03:29;;;;;;;7.87;1.40;;;;;;;13.06;79.64;99554.72;6172207;23;20204;-59
2022/11/02 08:05:56;;;;;;;7.33;1.50;;;;;;;13.02;80.02;99563.84;6175439;23;20201;-60
2022/11/02 08:08:24;;;;;;;5.80;1.23;;;;;;;13.03;77.82;99548.97;6172087;23;20691;-59
2022/11/02 08:10:52;;;;;;;11.10;1.67;;;;;;;12.95;79.77;99549.66;6176041;23;20198;-59
2022/11/02 08:13:20;;;;;;;9.70;2.57;;;;;;;12.98;80.01;99557.22;6172559;23;20546;-59
2022/11/02 08:15:50;;;;;;;6.40;1.37;;;;;;;13.06;80.74;99557.34;6175954;23;20232;-58
2022/11/02 08:18:19;;;;;;;11.57;1.87;;;;;;;13.09;79.82;99556.25;6172100;23;20735;-59
2022/11/02 08:20:46;;;;;;;5.83;1.70;;;;;;;13.10;81.09;99558.72;6175492;23;20719;-59
2022/11/02 08:23:14;;;;;;;8.13;1.53;;;;;;;12.96;79.98;99556.53;6172179;23;20203;-58
2022/11/02 08:25:44;;;;;;;5.23;1.63;;;;;;;13.13;80.20;99557.59;6175664;23;20206;-57
2022/11/02 08:28:14;;;;;;;5.53;1.40;;;;;;;13.24;79.71;99564.44;6171446;23;20661;-58
2022/11/02 08:30:40;;;;;;;3.87;1.47;;;;;;;13.29;81.16;99557.78;6175910;23;20717;-57
2022/11/02 08:33:14;;;;;;;9.17;1.60;;;;;;;13.32;80.11;99556.69;6174831;23;20200;-57
2022/11/02 08:35:42;;;;;;;6.20;1.23;;;;;;;13.41;79.68;99555.84;6173066;23;20727;-58
2022/11/02 08:38:09;;;;;;;9.47;1.90;;;;;;;13.48;79.04;99557.88;6159187;23;20210;-60
2022/11/02 08:40:37;;;;;;;6.70;1.90;;;;;;;13.54;78.65;99560.72;6175581;23;20214;-58
2022/11/02 08:43:05;;;;;;;6.67;2.03;;;;;;;13.55;77.31;99551.06;6175500;23;20581;-58
2022/11/02 08:45:33;;;;;;;9.80;1.67;;;;;;;13.53;78.52;99560.88;6171816;23;20261;-58
2022/11/02 08:48:00;;;;;;;7.43;1.77;;;;;;;13.70;77.11;99560.09;6175184;23;20203;-58
2022/11/02 08:50:28;;;;;;;7.47;1.80;;;;;;;13.88;76.71;99561.88;6172067;23;20204;-58
2022/11/02 08:52:54;;;;;;;10.07;1.80;;;;;;;13.86;76.34;99554.19;6175303;23;20200;-59
2022/11/02 08:55:21;;;;;;;5.03;1.80;;;;;;;13.96;74.74;99559.34;6172009;23;20573;-59
2022/11/02 08:57:49;;;;;;;11.53;3.53;;;;;;;14.03;73.92;99556.97;6175748;23;20287;-58
2022/11/02 09:00:16;;;;;;;9.93;1.67;;;;;;;14.03;73.55;99560.41;6171238;23;20219;-59
2022/11/02 09:02:43;;;;;;;7.83;1.57;;;;;;;14.10;72.43;99559.78;6175557;23;20204;-58
2022/11/02 09:05:11;;;;;;;12.67;1.60;;;;;;;14.05;72.45;99556.78;6171782;23;20673;-57
2022/11/02 09:07:39;;;;;;;10.50;2.07;;;;;;;14.10;74.02;99560.63;6174989;23;20213;-58
2022/11/02 09:10:07;;;;;;;9.37;1.70;;;;;;;14.18;73.48;99557.25;6174572;23;20233;-57
2022/11/02 09:12:33;;;;;;;8.07;1.67;;;;;;;14.36;73.26;99559.84;6172871;23;20645;-57
2022/11/02 09:15:00;;;;;;;5.07;1.67;;;;;;;14.41;74.77;99568.09;6175368;23;20730;-58
2022/11/02 09:17:26;;;;;;;7.50;1.70;;;;;;;14.35;71.78;99573.94;6145298;23;20229;-57
2022/11/02 09:19:53;;;;;;;10.57;3.27;;;;;;;14.41;72.82;99564.66;6175453;23;20204;-57
2022/11/02 09:22:19;;;;;;;11.07;2.07;;;;;;;14.28;72.83;99565.88;6171522;23;20242;-58
2022/11/02 09:24:47;;;;;;;9.67;2.20;;;;;;;14.39;70.70;99575.28;6174666;23;20200;-59
2022/11/02 09:27:14;;;;;;;8.40;2.07;;;;;;;14.30;70.84;99573.59;6170877;23;20199;-58
2022/11/02 09:29:40;;;;;;;11.33;1.50;;;;;;;13.98;72.94;99567.91;6175483;23;20200;-58
2022/11/02 09:32:07;;;;;;;5.60;1.60;;;;;;;14.11;70.85;99577.19;6170301;23;20217;-59
2022/11/02 09:34:34;;;;;;;8.27;1.50;;;;;;;13.96;70.79;99577.72;6173206;23;20810;-59
2022/11/02 09:37:00;;;;;;;10.20;1.83;;;;;;;14.00;69.92;99573.00;6174794;23;20580;-59
2022/11/02 09:39:27;;;;;;;7.67;2.00;;;;;;;13.90;71.09;99572.25;6171507;23;20234;-59
2022/11/02 09:42:03;;;;;;;6.83;1.73;;;;;;;13.92;72.28;99584.25;6174509;23;20207;-57
2022/11/02 09:44:42;;;;;;;5.93;1.80;;;;;;;13.86;72.17;99579.59;6172118;23;20211;-57
2022/11/02 09:47:11;;;;;;;9.07;1.70;;;;;;;13.92;72.04;99581.63;6171484;23;20202;-60
2022/11/02 09:49:39;;;;;;;9.53;1.53;;;;;;;13.93;71.04;99598.19;6174984;23;20330;-59
2022/11/02 09:52:13;;;;;;;7.07;1.77;;;;;;;13.78;72.28;99593.47;6173912;23;20678;-58
2022/11/02 09:54:43;;;;;;;8.63;2.33;;;;;;;13.60;74.29;99597.84;6146577;23;20246;-58
2022/11/02 09:57:16;;;;;;;6.73;1.90;;;;;;;13.54;74.27;99591.41;6171073;23;20203;-58
2022/11/02 09:59:43;;;;;;;6.70;1.77;;;;;;;13.51;73.36;99600.38;6175176;23;20200;-59
2022/11/02 10:02:20;;;;;;;7.87;1.80;;;;;;;13.41;74.35;99583.81;6171175;23;20207;-58
2022/11/02 10:05:12;;;;;;;12.30;1.90;;;;;;;13.37;75.67;99593.78;6174683;23;20213;-58
2022/11/02 10:08:06;;;;;;;8.73;1.60;;;;;;;13.48;75.17;99587.53;6172171;23;20204;-58
2022/11/02 10:10:38;;;;;;;10.57;1.60;;;;;;;13.46;76.83;99591.28;6171519;23;20210;-58
2022/11/02 10:13:18;;;;;;;10.43;2.43;;;;;;;13.55;74.93;99590.44;6174330;23;20688;-58
2022/11/02 10:15:50;;;;;;;9.30;2.70;;;;;;;13.39;76.22;99597.09;6172350;23;20215;-57
2022/11/02 10:18:20;;;;;;;7.33;1.60;;;;;;;13.39;73.71;99589.22;6171012;23;20229;-59
2022/11/02 10:20:52;;;;;;;8.80;1.70;;;;;;;13.26;74.69;99589.53;6174426;23;20217;-59
2022/11/02 10:23:27;;;;;;;11.10;1.90;;;;;;;13.18;72.49;99588.63;6170843;23;20661;-57
2022/11/02 10:25:55;;;;;;;9.23;1.90;;;;;;;13.07;74.76;99590.44;6148382;23;20745;-58
2022/11/02 10:28:27;;;;;;;9.27;1.70;;;;;;;13.08;75.96;99580.81;6170882;23;20206;-58
2022/11/02 10:30:54;;;;;;;9.10;1.90;;;;;;;13.14;74.37;99585.47;6174828;23;20203;-59
2022/11/02 10:33:28;;;;;;;7.10;1.60;;;;;;;13.14;74.70;99580.22;6170903;23;20282;-56
2022/11/02 10:36:09;;;;;;;7.20;1.60;;;;;;;13.24;71.42;99578.41;6173871;23;20217;-58
2022/11/02 10:38:44;;;;;;;16.10;2.17;;;;;;;13.17;73.25;99576.47;6172149;23;20232;-58
2022/11/02 10:41:39;;;;;;;7.27;1.67;;;;;;;13.17;73.82;99573.84;6171108;23;20210;-58
2022/11/02 10:44:20;;;;;;;10.70;2.30;;;;;;;13.26;71.99;99576.44;6150708;23;20564;-58
2022/11/02 10:47:02;;;;;;;11.50;1.80;;;;;;;13.32;70.23;99577.66;6172203;23;20210;-59
2022/11/02 10:50:02;;;;;;;10.27;2.00;;;;;;;13.36;68.86;99580.81;6171410;23;20207;-59
2022/11/02 10:52:35;;;;;;;15.60;2.00;;;;;;;13.45;68.15;99587.03;6172682;23;20500;-58
2022/11/02 10:55:01;;;;;;;13.60;2.43;;;;;;;13.52;70.03;99583.66;6176808;23;20208;-59
2022/11/02 10:57:30;;;;;;;11.50;1.90;;;;;;;13.64;70.35;99586.94;6173139;23;20214;-58
2022/11/02 11:00:38;;;;;;;6.30;1.83;;;;;;;13.39;68.59;99583.97;6175073;23;20260;-59
2022/11/02 11:03:09;;;;;;;9.77;1.40;;;;;;;13.61;67.03;99578.50;6103644;23;20548;-59
2022/11/02 11:05:38;;;;;;;12.03;2.17;;;;;;;13.63;67.26;99569.53;6173293;23;20204;-59
2022/11/02 11:08:05;;;;;;;12.73;1.80;;;;;;;13.56;68.19;99564.03;6176537;23;20203;-58
2022/11/02 11:10:38;;;;;;;10.77;1.57;;;;;;;13.90;67.92;99567.00;6173404;23;20207;-58
2022/11/02 11:13:07;;;;;;;9.13;1.77;;;;;;;13.80;68.07;99567.06;6176524;23;20223;-58
2022/11/02 11:15:34;;;;;;;11.40;1.73;;;;;;;14.09;65.63;99558.16;6173628;23;20204;-59
2022/11/02 11:18:13;;;;;;;9.70;1.43;;;;;;;14.40;64.22;99552.50;6176903;23;20207;-58
2022/11/02 11:20:40;;;;;;;6.73;1.50;;;;;;;14.42;64.58;99553.16;6173591;23;20340;-58
2022/11/02 11:23:19;;;;;;;14.53;1.60;;;;;;;14.50;65.85;99557.66;6175765;23;20427;-59
2022/11/02 11:25:55;;;;;;;9.47;1.77;;;;;;;14.81;64.71;99550.19;6174578;23;20294;-59
2022/11/02 11:28:27;;;;;;;8.20;1.70;;;;;;;14.84;63.32;99555.09;6172507;23;20206;-58
2022/11/02 11:31:09;;;;;;;10.97;2.10;;;;;;;15.08;64.45;99547.50;6176074;23;20206;-60
2022/11/02 11:33:47;;;;;;;10.43;2.10;;;;;;;15.28;61.84;99548.94;6173248;23;20594;-60
2022/11/02 11:36:25;;;;;;;7.17;1.60;;;;;;;15.13;62.04;99546.06;6172459;23;20195;-61
2022/11/02 11:38:55;;;;;;;6.63;2.00;;;;;;;14.81;62.75;99544.94;6176697;23;20212;-60
2022/11/02 11:41:22;;;;;;;5.40;1.90;;;;;;;14.54;65.94;99541.44;6146353;23;20258;-60
2022/11/02 11:43:51;;;;;;;13.70;1.63;;;;;;;14.56;65.64;99539.47;6176414;23;20210;-59
2022/11/02 11:46:18;;;;;;;12.07;2.03;;;;;;;14.88;63.07;99526.72;6170840;23;20207;-59
2022/11/02 11:48:54;;;;;;;7.87;1.50;;;;;;;15.08;63.05;99531.75;6176408;23;20976;-57
2022/11/02 11:51:27;;;;;;;8.93;1.60;;;;;;;15.34;61.88;99526.41;6172860;23;20726;-59
2022/11/02 11:54:21;;;;;;;14.07;2.10;;;;;;;15.18;62.39;99519.28;6176677;23;20205;-59
2022/11/02 11:56:49;;;;;;;10.23;2.27;;;;;;;15.20;61.99;99526.03;6173020;23;20555;-59